Belle Terre, New York
Current Conditions -  °F | °C
As of 5:56 PM on Thursday 23 Oct 2014 (Local Time) from KISP Reporting Station
Overcast Overcast  
Wind Chill: 12°   Ceiling: 1900
Heat Index: 12°   Visibility: 10mi
Dew Point:   Wind: 21mph
Humidity: 77%   Direction: 330°NNW
Pressure: 29.65"   Gusts: 30mph
Location:  40.9503°N, 73.0617°W
Report Text: KISP 232156Z 33018G26KT 10SM OVC019 12/08 A2965 RMK AO2 PK WND 33026/2151 SLP039 T01170078
Loading
Personal Weather Stations






























Interactive Weather Map
Tropical Storm Tracking
New forecast layout! Learn more

10-Day Weather Forecast

Advertisements
Track Severe Weather on mobile